Time;durP1;ratioP1;P1;durP2;ratioP2;P2;SDS_P1;SDS_P2;PMS_P1;PMS_P2;Temp;Humidity;BMP_temperature;BMP_pressure;BME280_temperature;BME280_humidity;BME280_pressure;Samples;Min_cycle;Max_cycle;Signal;HPM_P1;HPM_P2
2023/06/20 00:02:04;;;;;;;15.55;8.70;;;;;;;;;;6372955;22;20026;-62
2023/06/20 00:04:31;;;;;;;14.00;8.98;;;;;;;;;;6372644;22;20420;-62
2023/06/20 00:06:59;;;;;;;14.85;8.63;;;;;;;;;;6372893;22;20067;-62
2023/06/20 00:09:26;;;;;;;18.25;10.10;;;;;;;;;;6372768;22;20063;-62
2023/06/20 00:11:54;;;;;;;14.77;9.30;;;;;;;;;;6345032;22;20313;-62
2023/06/20 00:14:21;;;;;;;14.85;9.70;;;;;;;;;;6372910;22;20084;-62
2023/06/20 00:16:49;;;;;;;13.18;9.55;;;;;;;;;;6372065;22;20040;-61
2023/06/20 00:19:16;;;;;;;14.75;9.77;;;;;;;;;;6372592;22;20336;-61
2023/06/20 00:21:44;;;;;;;14.70;9.60;;;;;;;;;;6372941;22;20019;-61
2023/06/20 00:24:11;;;;;;;16.13;9.85;;;;;;;;;;6372464;22;20102;-60
2023/06/20 00:26:39;;;;;;;15.18;9.95;;;;;;;;;;6372557;22;20011;-60
2023/06/20 00:29:07;;;;;;;17.77;10.40;;;;;;;;;;6345505;22;20023;-61
2023/06/20 00:31:37;;;;;;;13.82;10.15;;;;;;;;;;6344535;22;20018;-60
2023/06/20 00:34:04;;;;;;;17.77;10.40;;;;;;;;;;6344349;22;20022;-61
2023/06/20 00:36:32;;;;;;;13.68;9.80;;;;;;;;;;6344412;22;20036;-60
2023/06/20 00:38:59;;;;;;;17.00;11.38;;;;;;;;;;6371863;22;20455;-61
2023/06/20 00:41:27;;;;;;;22.20;12.10;;;;;;;;;;6344138;22;20040;-61
2023/06/20 00:43:54;;;;;;;18.00;11.10;;;;;;;;;;6372173;22;20075;-61
2023/06/20 00:46:25;;;;;;;15.98;11.57;;;;;;;;;;6344537;22;20022;-62
2023/06/20 00:48:54;;;;;;;21.27;11.32;;;;;;;;;;6372670;22;20075;-61
2023/06/20 00:51:22;;;;;;;24.02;11.38;;;;;;;;;;6318629;22;20067;-61
2023/06/20 00:53:50;;;;;;;21.27;11.52;;;;;;;;;;6372858;22;20085;-62
2023/06/20 00:56:18;;;;;;;22.95;11.65;;;;;;;;;;6344422;22;20053;-61
2023/06/20 00:58:46;;;;;;;23.67;11.75;;;;;;;;;;6371527;22;20022;-61
2023/06/20 01:01:16;;;;;;;22.80;11.35;;;;;;;;;;6343423;22;20025;-61
2023/06/20 01:03:49;;;;;;;21.38;11.70;;;;;;;;;;6343490;22;20025;-61
2023/06/20 01:06:35;;;;;;;24.95;11.30;;;;;;;;;;6344167;22;20071;-62
2023/06/20 01:09:23;;;;;;;30.40;11.80;;;;;;;;;;6343470;22;20067;-61
2023/06/20 01:11:55;;;;;;;26.45;12.00;;;;;;;;;;6344042;22;20018;-61
2023/06/20 01:14:46;;;;;;;28.08;11.40;;;;;;;;;;6344506;22;20067;-61
2023/06/20 01:17:17;;;;;;;24.30;12.30;;;;;;;;;;6344105;22;20022;-61
2023/06/20 01:19:44;;;;;;;25.25;12.10;;;;;;;;;;6318544;22;20387;-61
2023/06/20 01:22:15;;;;;;;25.65;12.40;;;;;;;;;;6344207;22;20011;-61
2023/06/20 01:24:46;;;;;;;30.63;12.57;;;;;;;;;;6343411;22;20018;-61
2023/06/20 01:27:23;;;;;;;23.75;11.70;;;;;;;;;;6343633;22;20014;-61
2023/06/20 01:29:59;;;;;;;26.77;11.93;;;;;;;;;;6343339;22;20101;-61
2023/06/20 01:32:29;;;;;;;27.95;12.48;;;;;;;;;;6371031;22;20363;-61
2023/06/20 01:34:59;;;;;;;27.38;12.82;;;;;;;;;;6344395;22;20021;-61
2023/06/20 01:37:28;;;;;;;35.42;11.60;;;;;;;;;;6371650;22;20343;-61
2023/06/20 01:40:00;;;;;;;33.47;12.32;;;;;;;;;;6343711;22;20022;-61
2023/06/20 01:42:29;;;;;;;31.30;12.82;;;;;;;;;;6359221;22;20022;-61
2023/06/20 01:44:58;;;;;;;32.58;13.00;;;;;;;;;;6344137;22;20022;-61
2023/06/20 01:47:26;;;;;;;29.35;12.60;;;;;;;;;;6342809;22;20051;-61
2023/06/20 01:49:55;;;;;;;30.50;12.30;;;;;;;;;;6343789;22;20018;-61
2023/06/20 01:52:23;;;;;;;33.20;11.75;;;;;;;;;;6344347;22;20331;-62
2023/06/20 01:54:50;;;;;;;28.90;11.88;;;;;;;;;;6371438;22;20014;-61
2023/06/20 01:57:18;;;;;;;32.95;12.27;;;;;;;;;;6343156;22;20018;-61
2023/06/20 01:59:47;;;;;;;27.35;12.30;;;;;;;;;;6343222;22;20049;-61
2023/06/20 02:02:15;;;;;;;26.25;13.10;;;;;;;;;;6343618;22;20046;-61
2023/06/20 02:04:45;;;;;;;34.88;12.60;;;;;;;;;;6371451;22;20072;-62
2023/06/20 02:07:13;;;;;;;27.15;11.77;;;;;;;;;;6343659;22;20021;-62
2023/06/20 02:09:44;;;;;;;36.83;12.52;;;;;;;;;;6343743;22;20028;-61
2023/06/20 02:12:13;;;;;;;29.33;12.02;;;;;;;;;;6343829;22;20014;-61
2023/06/20 02:14:41;;;;;;;28.55;11.07;;;;;;;;;;6371580;22;20018;-61
2023/06/20 02:17:12;;;;;;;24.80;11.88;;;;;;;;;;6344214;22;20022;-61
2023/06/20 02:19:40;;;;;;;26.98;11.82;;;;;;;;;;6343343;22;20015;-61
2023/06/20 02:22:08;;;;;;;29.65;11.70;;;;;;;;;;6342917;22;20018;-61
2023/06/20 02:24:40;;;;;;;36.15;11.65;;;;;;;;;;6371494;22;20038;-61
2023/06/20 02:27:12;;;;;;;38.50;12.38;;;;;;;;;;6343204;22;20015;-61
2023/06/20 02:29:40;;;;;;;36.28;10.55;;;;;;;;;;6343186;22;20030;-61
2023/06/20 02:32:09;;;;;;;49.05;10.80;;;;;;;;;;6370825;22;20134;-61
2023/06/20 02:34:41;;;;;;;34.10;11.23;;;;;;;;;;6371623;22;20019;-61
2023/06/20 02:37:09;;;;;;;39.30;10.73;;;;;;;;;;6343246;22;20059;-61
2023/06/20 02:39:37;;;;;;;48.92;11.38;;;;;;;;;;6342908;22;20020;-61
2023/06/20 02:42:04;;;;;;;40.35;11.52;;;;;;;;;;6371120;22;20063;-61
2023/06/20 02:44:32;;;;;;;41.03;10.77;;;;;;;;;;6343280;22;20022;-62
2023/06/20 02:47:15;;;;;;;43.63;12.18;;;;;;;;;;6342790;22;20571;-61
2023/06/20 02:49:51;;;;;;;46.55;13.32;;;;;;;;;;6317349;22;20018;-62
2023/06/20 02:52:23;;;;;;;38.90;11.57;;;;;;;;;;6343408;22;20089;-61
2023/06/20 02:55:00;;;;;;;43.35;11.10;;;;;;;;;;6342717;22;20022;-62
2023/06/20 02:57:28;;;;;;;43.00;10.73;;;;;;;;;;6370447;22;20347;-61
2023/06/20 03:00:00;;;;;;;44.70;11.27;;;;;;;;;;6343148;22;20018;-61
2023/06/20 03:02:30;;;;;;;34.72;10.63;;;;;;;;;;6343072;22;20036;-61
2023/06/20 03:05:01;;;;;;;37.17;10.25;;;;;;;;;;6342908;22;20022;-61
2023/06/20 03:07:33;;;;;;;38.80;11.52;;;;;;;;;;6343286;22;20018;-61
2023/06/20 03:10:03;;;;;;;39.92;10.43;;;;;;;;;;6342463;22;20462;-61
2023/06/20 03:12:31;;;;;;;37.97;11.27;;;;;;;;;;6343008;22;20038;-61
2023/06/20 03:14:59;;;;;;;33.38;10.60;;;;;;;;;;6343020;22;20092;-61
2023/06/20 03:17:27;;;;;;;38.42;11.05;;;;;;;;;;6343240;22;20050;-61
2023/06/20 03:19:55;;;;;;;40.50;10.70;;;;;;;;;;6342984;22;20039;-61
2023/06/20 03:22:23;;;;;;;36.78;11.25;;;;;;;;;;6343154;22;20018;-61
2023/06/20 03:24:51;;;;;;;36.25;10.68;;;;;;;;;;6370096;22;20026;-61
2023/06/20 03:27:18;;;;;;;34.75;10.43;;;;;;;;;;6343234;22;20064;-61
2023/06/20 03:29:47;;;;;;;37.28;10.70;;;;;;;;;;6343200;22;20018;-61
2023/06/20 03:32:14;;;;;;;35.70;10.52;;;;;;;;;;6343096;22;20019;-61
2023/06/20 03:34:41;;;;;;;26.05;9.23;;;;;;;;;;6343038;22;20053;-61
2023/06/20 03:37:09;;;;;;;31.75;9.93;;;;;;;;;;6343255;22;20018;-61
2023/06/20 03:39:36;;;;;;;30.83;9.57;;;;;;;;;;6342610;22;20007;-61
2023/06/20 03:42:05;;;;;;;27.67;9.52;;;;;;;;;;6317515;22;20335;-61
2023/06/20 03:44:35;;;;;;;34.47;10.88;;;;;;;;;;6343168;22;20067;-61
2023/06/20 03:47:03;;;;;;;32.05;12.10;;;;;;;;;;6341994;22;20022;-61
2023/06/20 03:49:31;;;;;;;44.40;13.15;;;;;;;;;;6341857;22;20027;-61
2023/06/20 03:51:59;;;;;;;35.60;11.07;;;;;;;;;;6341824;22;20380;-61
2023/06/20 03:54:26;;;;;;;32.75;10.55;;;;;;;;;;6341703;22;20109;-61
2023/06/20 03:56:54;;;;;;;32.95;10.77;;;;;;;;;;6341887;22;20382;-62
2023/06/20 03:59:21;;;;;;;27.52;10.25;;;;;;;;;;6342345;22;20370;-62
2023/06/20 04:01:50;;;;;;;32.10;11.02;;;;;;;;;;6342418;22;20074;-62
2023/06/20 04:04:18;;;;;;;28.50;10.80;;;;;;;;;;6341030;22;20049;-62
2023/06/20 04:06:49;;;;;;;29.58;10.45;;;;;;;;;;6370072;22;20086;-63
2023/06/20 04:09:17;;;;;;;25.95;9.88;;;;;;;;;;6369697;22;20508;-61
2023/06/20 04:11:45;;;;;;;26.58;8.98;;;;;;;;;;6342162;22;20093;-61
2023/06/20 04:14:13;;;;;;;30.20;9.52;;;;;;;;;;6370084;22;20014;-62
2023/06/20 04:16:41;;;;;;;32.22;10.07;;;;;;;;;;6341529;22;20018;-61
2023/06/20 04:19:08;;;;;;;25.40;9.10;;;;;;;;;;6341820;22;20018;-62
2023/06/20 04:21:36;;;;;;;26.98;9.90;;;;;;;;;;6342377;22;20336;-61
2023/06/20 04:24:03;;;;;;;25.77;9.82;;;;;;;;;;6344284;22;20021;-62
2023/06/20 04:26:31;;;;;;;22.30;9.20;;;;;;;;;;6342909;22;20018;-61
2023/06/20 04:28:59;;;;;;;31.02;9.35;;;;;;;;;;6372670;22;20026;-62
2023/06/20 04:31:29;;;;;;;30.95;10.70;;;;;;;;;;6342622;22;20109;-62
2023/06/20 04:33:57;;;;;;;30.98;10.27;;;;;;;;;;6343857;22;20018;-62
2023/06/20 04:36:26;;;;;;;29.77;9.82;;;;;;;;;;6325948;22;20019;-62
2023/06/20 04:38:57;;;;;;;34.35;9.13;;;;;;;;;;6337372;22;20018;-62
2023/06/20 04:41:25;;;;;;;21.67;9.77;;;;;;;;;;6337827;22;20019;-62
2023/06/20 04:43:52;;;;;;;18.05;9.65;;;;;;;;;;6338870;22;20029;-62
2023/06/20 04:46:20;;;;;;;19.67;9.63;;;;;;;;;;6370848;22;20014;-62
2023/06/20 04:48:47;;;;;;;20.45;9.63;;;;;;;;;;6343393;22;20019;-62
2023/06/20 04:51:16;;;;;;;22.52;9.52;;;;;;;;;;6342899;22;20018;-61
2023/06/20 04:53:43;;;;;;;21.25;9.80;;;;;;;;;;6341405;22;20018;-61
2023/06/20 04:56:16;;;;;;;18.92;9.82;;;;;;;;;;6341736;22;20063;-61
2023/06/20 04:58:45;;;;;;;20.30;10.10;;;;;;;;;;6341524;22;20014;-61
2023/06/20 05:01:15;;;;;;;21.10;8.73;;;;;;;;;;6341628;22;20467;-61
2023/06/20 05:03:45;;;;;;;17.75;7.63;;;;;;;;;;6342165;22;20018;-61
2023/06/20 05:06:19;;;;;;;15.23;7.85;;;;;;;;;;6341760;22;20419;-61
2023/06/20 05:08:48;;;;;;;13.05;7.50;;;;;;;;;;6342682;22;20093;-61
2023/06/20 05:11:15;;;;;;;16.80;7.78;;;;;;;;;;6342939;22;20026;-61
2023/06/20 05:13:43;;;;;;;16.08;7.90;;;;;;;;;;6370764;22;20014;-61
2023/06/20 05:16:10;;;;;;;12.93;8.65;;;;;;;;;;6371223;22;20010;-62
2023/06/20 05:18:38;;;;;;;13.98;8.38;;;;;;;;;;6370867;22;20097;-62
2023/06/20 05:21:06;;;;;;;19.52;8.05;;;;;;;;;;6370594;22;20015;-62
2023/06/20 05:23:33;;;;;;;12.60;8.07;;;;;;;;;;6370876;22;20018;-61
2023/06/20 05:26:02;;;;;;;16.95;8.38;;;;;;;;;;6370654;22;20093;-61
2023/06/20 05:28:29;;;;;;;16.60;7.35;;;;;;;;;;6370737;22;20014;-61
2023/06/20 05:30:57;;;;;;;18.02;7.43;;;;;;;;;;6370634;22;20019;-61
2023/06/20 05:33:25;;;;;;;15.32;7.00;;;;;;;;;;6370236;22;20018;-61
2023/06/20 05:35:53;;;;;;;19.63;8.00;;;;;;;;;;6370633;22;20014;-61
2023/06/20 05:38:21;;;;;;;23.98;7.32;;;;;;;;;;6343471;22;20018;-61
2023/06/20 05:40:48;;;;;;;13.00;7.63;;;;;;;;;;6370959;22;20014;-61
2023/06/20 05:43:16;;;;;;;16.88;7.72;;;;;;;;;;6370501;22;20017;-61
2023/06/20 05:45:43;;;;;;;16.30;7.05;;;;;;;;;;6370476;22;20077;-60
2023/06/20 05:48:11;;;;;;;19.17;6.95;;;;;;;;;;6370818;22;20034;-61
2023/06/20 05:50:40;;;;;;;15.10;6.63;;;;;;;;;;6370572;22;20344;-61
2023/06/20 05:53:07;;;;;;;19.17;7.07;;;;;;;;;;6370496;22;20484;-61
2023/06/20 05:55:35;;;;;;;14.13;6.45;;;;;;;;;;6370549;22;20336;-61
2023/06/20 05:58:02;;;;;;;11.80;6.65;;;;;;;;;;6370932;22;20011;-61
2023/06/20 06:00:30;;;;;;;18.20;7.80;;;;;;;;;;6370369;22;20021;-62
2023/06/20 06:02:57;;;;;;;10.30;6.78;;;;;;;;;;6370824;22;20075;-62
2023/06/20 06:05:25;;;;;;;13.50;7.18;;;;;;;;;;6370211;22;20014;-61
2023/06/20 06:07:53;;;;;;;12.65;6.88;;;;;;;;;;6370713;22;20021;-61
2023/06/20 06:10:20;;;;;;;10.00;6.90;;;;;;;;;;6370264;22;20344;-62
2023/06/20 06:12:48;;;;;;;9.82;6.15;;;;;;;;;;6370684;22;20010;-62
2023/06/20 06:15:15;;;;;;;11.52;6.72;;;;;;;;;;6370314;22;20055;-61
2023/06/20 06:17:43;;;;;;;7.07;6.18;;;;;;;;;;6370835;22;20102;-61
2023/06/20 06:20:15;;;;;;;11.93;6.18;;;;;;;;;;6370087;22;20317;-61
2023/06/20 06:22:43;;;;;;;12.75;5.88;;;;;;;;;;6370121;22;20015;-61
2023/06/20 06:25:10;;;;;;;9.45;5.93;;;;;;;;;;6369960;22;20022;-62
2023/06/20 06:27:37;;;;;;;8.60;5.47;;;;;;;;;;6370084;22;20037;-62
2023/06/20 06:30:05;;;;;;;8.63;5.60;;;;;;;;;;6341976;22;20022;-61
2023/06/20 06:32:36;;;;;;;6.40;5.28;;;;;;;;;;6342163;22;20018;-61
2023/06/20 06:35:04;;;;;;;7.93;5.10;;;;;;;;;;6342605;22;20023;-61
2023/06/20 06:37:32;;;;;;;8.05;5.30;;;;;;;;;;6370179;22;20017;-62
2023/06/20 06:40:00;;;;;;;9.00;5.43;;;;;;;;;;6369832;22;20393;-61
2023/06/20 06:42:27;;;;;;;8.70;5.47;;;;;;;;;;6370064;22;20010;-61
2023/06/20 06:44:55;;;;;;;6.38;5.13;;;;;;;;;;6369424;22;20018;-62
2023/06/20 06:47:24;;;;;;;8.63;5.80;;;;;;;;;;6369805;22;20097;-62
2023/06/20 06:49:52;;;;;;;7.97;5.55;;;;;;;;;;6369770;22;20014;-61
2023/06/20 06:52:19;;;;;;;6.45;5.32;;;;;;;;;;6369769;22;20018;-61
2023/06/20 06:54:47;;;;;;;7.13;5.22;;;;;;;;;;6369811;22;20436;-62
2023/06/20 06:57:14;;;;;;;8.73;5.38;;;;;;;;;;6369677;22;20010;-61
2023/06/20 06:59:42;;;;;;;10.10;5.55;;;;;;;;;;6369744;22;20018;-61
2023/06/20 07:02:09;;;;;;;10.77;6.47;;;;;;;;;;6369642;22;20018;-61
2023/06/20 07:04:37;;;;;;;11.20;5.65;;;;;;;;;;6370035;22;20081;-61
2023/06/20 07:07:05;;;;;;;9.27;4.97;;;;;;;;;;6370052;22;20370;-62
2023/06/20 07:09:33;;;;;;;8.50;5.57;;;;;;;;;;6369589;22;20041;-61
2023/06/20 07:12:00;;;;;;;7.18;5.53;;;;;;;;;;6369682;22;20022;-61
2023/06/20 07:14:27;;;;;;;8.85;5.55;;;;;;;;;;6357088;22;20038;-62
2023/06/20 07:16:55;;;;;;;9.00;5.85;;;;;;;;;;6369767;22;20448;-62
2023/06/20 07:19:32;;;;;;;6.38;4.72;;;;;;;;;;6369632;22;20015;-62
2023/06/20 07:21:59;;;;;;;7.50;4.88;;;;;;;;;;6369522;22;20351;-62
2023/06/20 07:24:27;;;;;;;6.70;5.30;;;;;;;;;;6369772;22;20386;-62
2023/06/20 07:26:55;;;;;;;8.18;5.15;;;;;;;;;;6369351;22;20015;-61
2023/06/20 07:29:22;;;;;;;6.80;4.82;;;;;;;;;;6369536;22;20011;-62
2023/06/20 07:31:50;;;;;;;7.13;5.00;;;;;;;;;;6369246;22;20084;-62
2023/06/20 07:34:17;;;;;;;6.93;4.88;;;;;;;;;;6341590;22;20098;-61
2023/06/20 07:36:44;;;;;;;5.18;4.68;;;;;;;;;;6369530;22;20010;-61
2023/06/20 07:39:12;;;;;;;6.25;4.22;;;;;;;;;;6342085;22;20015;-62
2023/06/20 07:41:40;;;;;;;9.20;4.78;;;;;;;;;;6369299;22;20045;-61
2023/06/20 07:44:10;;;;;;;5.10;4.20;;;;;;;;;;6369325;22;20018;-61
2023/06/20 07:46:39;;;;;;;6.63;4.45;;;;;;;;;;6369398;22;20404;-61
2023/06/20 07:49:07;;;;;;;7.22;5.05;;;;;;;;;;6369299;22;20509;-61
2023/06/20 07:51:36;;;;;;;8.02;5.10;;;;;;;;;;6342072;22;20458;-61
2023/06/20 07:54:04;;;;;;;6.40;4.63;;;;;;;;;;6369247;22;20010;-61
2023/06/20 07:56:31;;;;;;;6.90;4.47;;;;;;;;;;6369707;22;20018;-61
2023/06/20 07:58:59;;;;;;;6.40;4.50;;;;;;;;;;6371585;22;20030;-61
2023/06/20 08:01:27;;;;;;;6.38;4.35;;;;;;;;;;6371550;22;20071;-61
2023/06/20 08:03:55;;;;;;;5.60;3.92;;;;;;;;;;6371771;22;20034;-61
2023/06/20 08:06:22;;;;;;;7.28;4.38;;;;;;;;;;6371334;22;20018;-61
2023/06/20 08:08:50;;;;;;;6.28;4.15;;;;;;;;;;6371142;22;20014;-62
2023/06/20 08:11:21;;;;;;;5.07;4.40;;;;;;;;;;6371263;22;20024;-61
2023/06/20 08:13:49;;;;;;;5.80;4.38;;;;;;;;;;6371443;22;20014;-62
2023/06/20 08:16:17;;;;;;;4.78;4.28;;;;;;;;;;6371299;22;20044;-61
2023/06/20 08:18:45;;;;;;;6.65;4.20;;;;;;;;;;6343619;22;20038;-62
2023/06/20 08:21:12;;;;;;;6.03;4.20;;;;;;;;;;6371216;22;20025;-62
2023/06/20 08:23:40;;;;;;;5.60;4.97;;;;;;;;;;6371379;22;20010;-62
2023/06/20 08:26:07;;;;;;;10.77;5.15;;;;;;;;;;6371505;22;20049;-62
2023/06/20 08:28:35;;;;;;;6.32;5.13;;;;;;;;;;6371389;22;20014;-62
2023/06/20 08:31:04;;;;;;;6.35;4.90;;;;;;;;;;6371294;22;20466;-62
2023/06/20 08:33:32;;;;;;;5.55;5.05;;;;;;;;;;6371473;22;20015;-62
2023/06/20 08:36:01;;;;;;;5.68;4.88;;;;;;;;;;6371236;22;20029;-62
2023/06/20 08:38:29;;;;;;;6.85;5.30;;;;;;;;;;6371459;22;20089;-62
2023/06/20 08:40:56;;;;;;;7.15;5.38;;;;;;;;;;6371206;22;20018;-62
2023/06/20 08:43:24;;;;;;;6.43;4.97;;;;;;;;;;6370757;22;20040;-62
2023/06/20 08:45:56;;;;;;;9.45;6.38;;;;;;;;;;6370946;22;20019;-62
2023/06/20 08:48:24;;;;;;;6.65;5.60;;;;;;;;;;6371147;22;20055;-62
2023/06/20 08:50:52;;;;;;;7.18;6.05;;;;;;;;;;6371602;22;20101;-62
2023/06/20 08:53:20;;;;;;;4.85;4.43;;;;;;;;;;6371141;22;20014;-62
2023/06/20 08:55:52;;;;;;;13.52;6.97;;;;;;;;;;6344133;22;20436;-62
2023/06/20 08:58:21;;;;;;;5.78;5.10;;;;;;;;;;6371120;22;20436;-62
2023/06/20 09:00:52;;;;;;;8.73;5.10;;;;;;;;;;6370614;22;20018;-63
2023/06/20 09:03:22;;;;;;;6.88;5.03;;;;;;;;;;6343088;22;20042;-61
2023/06/20 09:05:50;;;;;;;9.75;5.25;;;;;;;;;;6370816;22;20309;-61
2023/06/20 09:08:17;;;;;;;7.05;5.40;;;;;;;;;;6370265;22;20758;-62
2023/06/20 09:10:45;;;;;;;8.07;5.75;;;;;;;;;;6370753;22;20014;-62
2023/06/20 09:13:13;;;;;;;7.97;6.43;;;;;;;;;;6343155;22;20018;-61
2023/06/20 09:15:44;;;;;;;7.53;6.10;;;;;;;;;;6370967;22;20010;-62
2023/06/20 09:18:15;;;;;;;9.05;5.63;;;;;;;;;;6370944;22;20014;-62
2023/06/20 09:20:43;;;;;;;10.55;6.35;;;;;;;;;;6370682;22;20033;-62
2023/06/20 09:23:11;;;;;;;7.70;6.28;;;;;;;;;;6370709;22;20015;-62
2023/06/20 09:25:40;;;;;;;7.20;6.28;;;;;;;;;;6370562;22;20097;-62
2023/06/20 09:28:17;;;;;;;6.93;6.25;;;;;;;;;;6370459;22;20329;-61
2023/06/20 09:30:47;;;;;;;6.60;5.88;;;;;;;;;;6370720;22;20075;-62
2023/06/20 09:33:17;;;;;;;7.55;6.30;;;;;;;;;;6370901;22;20010;-61
2023/06/20 09:35:44;;;;;;;17.30;13.45;;;;;;;;;;6370730;22;20025;-61
2023/06/20 09:38:12;;;;;;;8.25;7.35;;;;;;;;;;6370699;22;20015;-62
2023/06/20 09:40:46;;;;;;;8.07;7.28;;;;;;;;;;6342996;22;20125;-62
2023/06/20 09:43:13;;;;;;;14.57;11.50;;;;;;;;;;6370992;22;20081;-62
2023/06/20 09:45:41;;;;;;;12.88;11.52;;;;;;;;;;6370536;22;20331;-61
2023/06/20 09:48:09;;;;;;;9.40;7.18;;;;;;;;;;6370699;22;20015;-61
2023/06/20 09:50:38;;;;;;;8.00;6.90;;;;;;;;;;6370462;22;20043;-61
2023/06/20 09:53:11;;;;;;;46.67;41.92;;;;;;;;;;6370552;22;20020;-62
2023/06/20 09:55:39;;;;;;;130.27;116.55;;;;;;;;;;6370507;22;20516;-62
2023/06/20 09:58:06;;;;;;;54.00;48.38;;;;;;;;;;6370442;22;20322;-61
2023/06/20 10:00:35;;;;;;;106.78;95.95;;;;;;;;;;6370312;22;20025;-61
2023/06/20 10:03:07;;;;;;;18.08;16.27;;;;;;;;;;6370279;22;20018;-61
2023/06/20 10:05:35;;;;;;;11.70;9.82;;;;;;;;;;6370300;22;20370;-61
2023/06/20 10:08:03;;;;;;;7.00;6.30;;;;;;;;;;6342273;22;20014;-63
2023/06/20 10:10:31;;;;;;;8.00;6.90;;;;;;;;;;6370188;22;20081;-62
2023/06/20 10:12:58;;;;;;;6.75;5.82;;;;;;;;;;6370650;22;20336;-62
2023/06/20 10:15:26;;;;;;;11.60;9.00;;;;;;;;;;6370492;22;20014;-62
2023/06/20 10:17:53;;;;;;;7.35;6.30;;;;;;;;;;6370177;22;20019;-62
2023/06/20 10:20:27;;;;;;;6.18;5.32;;;;;;;;;;6369879;22;20021;-62
2023/06/20 10:22:58;;;;;;;8.45;6.35;;;;;;;;;;6370338;22;20184;-61
2023/06/20 10:25:26;;;;;;;15.52;12.40;;;;;;;;;;6342596;22;20050;-62
2023/06/20 10:27:54;;;;;;;11.35;8.38;;;;;;;;;;6370152;22;20018;-63
2023/06/20 10:30:40;;;;;;;7.05;5.75;;;;;;;;;;6370170;22;20022;-61
2023/06/20 10:33:08;;;;;;;5.97;5.45;;;;;;;;;;6370067;22;20089;-62
2023/06/20 10:35:47;;;;;;;6.80;6.10;;;;;;;;;;6369949;22;20093;-62
2023/06/20 10:38:15;;;;;;;7.05;6.32;;;;;;;;;;6369948;22;20018;-62
2023/06/20 10:40:43;;;;;;;6.97;5.90;;;;;;;;;;6369917;22;20018;-62
2023/06/20 10:43:17;;;;;;;6.28;5.68;;;;;;;;;;6369828;22;20063;-62
2023/06/20 10:45:58;;;;;;;6.80;6.10;;;;;;;;;;6370128;22;20006;-62
2023/06/20 10:48:26;;;;;;;7.30;5.63;;;;;;;;;;6369925;22;20042;-62
2023/06/20 10:51:00;;;;;;;6.28;5.68;;;;;;;;;;6370109;22;20014;-62
2023/06/20 10:53:29;;;;;;;7.38;5.75;;;;;;;;;;6370044;22;20018;-62
2023/06/20 10:55:56;;;;;;;6.82;5.93;;;;;;;;;;6369740;22;20068;-62
2023/06/20 10:58:24;;;;;;;9.65;6.40;;;;;;;;;;6369964;22;20017;-62
2023/06/20 11:00:59;;;;;;;6.72;6.00;;;;;;;;;;6369561;22;20063;-63
2023/06/20 11:03:29;;;;;;;6.85;5.85;;;;;;;;;;6369819;22;20317;-61
2023/06/20 11:05:57;;;;;;;5.75;5.03;;;;;;;;;;6369537;22;20093;-61
2023/06/20 11:08:25;;;;;;;10.30;5.78;;;;;;;;;;6369635;22;20021;-61
2023/06/20 11:10:53;;;;;;;5.72;5.13;;;;;;;;;;6369428;22;20022;-61
2023/06/20 11:13:23;;;;;;;8.45;5.40;;;;;;;;;;6369484;22;20520;-61
2023/06/20 11:15:50;;;;;;;6.28;4.93;;;;;;;;;;6369610;22;20486;-61
2023/06/20 11:18:18;;;;;;;5.20;4.70;;;;;;;;;;6369670;22;20020;-61
2023/06/20 11:20:46;;;;;;;5.80;5.25;;;;;;;;;;6369696;22;20018;-61
2023/06/20 11:23:13;;;;;;;6.72;5.50;;;;;;;;;;6369423;22;20010;-61
2023/06/20 11:25:42;;;;;;;8.25;5.50;;;;;;;;;;6369437;22;20010;-61
2023/06/20 11:28:11;;;;;;;6.35;5.35;;;;;;;;;;6369512;22;20017;-61
2023/06/20 11:30:39;;;;;;;8.65;5.97;;;;;;;;;;6369118;22;20014;-61
2023/06/20 11:33:14;;;;;;;8.68;5.28;;;;;;;;;;6369401;22;20067;-61
2023/06/20 11:35:43;;;;;;;5.35;4.85;;;;;;;;;;6369473;22;20019;-61
2023/06/20 11:38:13;;;;;;;7.20;5.10;;;;;;;;;;6369339;22;20440;-62
2023/06/20 11:40:42;;;;;;;5.85;4.93;;;;;;;;;;6369509;22;20063;-62
2023/06/20 11:43:19;;;;;;;6.05;5.18;;;;;;;;;;6369180;22;20041;-62
2023/06/20 11:45:47;;;;;;;6.50;5.47;;;;;;;;;;6369412;22;20097;-62
2023/06/20 11:48:15;;;;;;;8.18;4.80;;;;;;;;;;6369823;22;20014;-61
2023/06/20 11:50:43;;;;;;;5.78;5.18;;;;;;;;;;6369542;22;20010;-61
2023/06/20 11:53:18;;;;;;;7.93;5.80;;;;;;;;;;6369390;22;20068;-61
2023/06/20 11:56:14;;;;;;;7.75;5.03;;;;;;;;;;6342106;22;20014;-61
2023/06/20 11:58:42;;;;;;;5.40;4.90;;;;;;;;;;6365573;22;20038;-61
2023/06/20 12:01:17;;;;;;;7.80;5.43;;;;;;;;;;6369534;22;20022;-62
2023/06/20 12:03:45;;;;;;;7.78;4.97;;;;;;;;;;6369671;22;20030;-61
2023/06/20 12:06:31;;;;;;;6.57;4.75;;;;;;;;;;6368889;22;20040;-62
2023/06/20 12:08:59;;;;;;;5.93;4.90;;;;;;;;;;6369535;22;20022;-61
2023/06/20 12:11:28;;;;;;;7.38;5.47;;;;;;;;;;6369051;22;20025;-61
2023/06/20 12:13:56;;;;;;;7.78;6.53;;;;;;;;;;6369356;22;20090;-61
2023/06/20 12:16:24;;;;;;;6.20;5.35;;;;;;;;;;6369322;22;20015;-62
2023/06/20 12:18:53;;;;;;;5.40;4.90;;;;;;;;;;6369371;22;20014;-62
2023/06/20 12:21:20;;;;;;;6.25;5.18;;;;;;;;;;6341635;22;20034;-62
2023/06/20 12:23:48;;;;;;;5.75;5.15;;;;;;;;;;6369253;22;20018;-61
2023/06/20 12:26:18;;;;;;;7.80;5.15;;;;;;;;;;6342231;22;20025;-62
2023/06/20 12:28:45;;;;;;;5.93;4.90;;;;;;;;;;6369380;22;20014;-61
2023/06/20 12:31:13;;;;;;;5.53;4.47;;;;;;;;;;6369561;22;20038;-62
2023/06/20 12:33:40;;;;;;;9.23;5.10;;;;;;;;;;6369215;22;20067;-62
2023/06/20 12:36:08;;;;;;;5.90;5.30;;;;;;;;;;6369228;22;20468;-61
2023/06/20 12:38:36;;;;;;;6.13;5.53;;;;;;;;;;6341475;22;20089;-61
2023/06/20 12:41:14;;;;;;;6.80;5.00;;;;;;;;;;6369311;22;20025;-61
2023/06/20 12:43:42;;;;;;;5.43;4.88;;;;;;;;;;6342995;22;20034;-61
2023/06/20 12:46:10;;;;;;;8.55;5.40;;;;;;;;;;6370885;22;20085;-61
2023/06/20 12:48:39;;;;;;;6.32;5.22;;;;;;;;;;6342655;22;20022;-62
2023/06/20 12:51:07;;;;;;;16.75;6.55;;;;;;;;;;6370756;22;20086;-62
2023/06/20 12:53:35;;;;;;;11.02;6.28;;;;;;;;;;6370883;22;20122;-61
2023/06/20 12:56:03;;;;;;;5.10;4.60;;;;;;;;;;6370707;22;20022;-61
2023/06/20 12:58:33;;;;;;;5.35;4.75;;;;;;;;;;6371153;22;20389;-61
2023/06/20 13:01:02;;;;;;;6.15;4.78;;;;;;;;;;6370896;22;20014;-61
2023/06/20 13:03:29;;;;;;;5.18;4.68;;;;;;;;;;6342916;22;20321;-62
2023/06/20 13:05:59;;;;;;;11.32;6.68;;;;;;;;;;6370789;22;20010;-62
2023/06/20 13:08:26;;;;;;;5.30;4.80;;;;;;;;;;6370814;22;20094;-61
2023/06/20 13:10:54;;;;;;;5.28;4.70;;;;;;;;;;6371131;22;20018;-61
2023/06/20 13:13:22;;;;;;;6.88;5.10;;;;;;;;;;6370705;22;20025;-61
2023/06/20 13:15:49;;;;;;;8.00;4.78;;;;;;;;;;6342940;22;20411;-61
2023/06/20 13:18:17;;;;;;;6.65;4.90;;;;;;;;;;6370710;22;20018;-61
2023/06/20 13:20:44;;;;;;;6.13;4.85;;;;;;;;;;6370358;22;20364;-61
2023/06/20 13:23:12;;;;;;;5.22;4.60;;;;;;;;;;6370339;22;20458;-61
2023/06/20 13:25:39;;;;;;;5.30;4.72;;;;;;;;;;6370543;22;20089;-61
2023/06/20 13:28:07;;;;;;;6.50;4.32;;;;;;;;;;6370216;22;20042;-61
2023/06/20 13:30:35;;;;;;;6.57;5.03;;;;;;;;;;6370958;22;20336;-61
2023/06/20 13:33:03;;;;;;;5.18;4.65;;;;;;;;;;6370656;22;20022;-61
2023/06/20 13:35:31;;;;;;;6.30;4.55;;;;;;;;;;6370839;22;20021;-62
2023/06/20 13:37:59;;;;;;;4.80;4.30;;;;;;;;;;6370518;22;20017;-61
2023/06/20 13:40:30;;;;;;;6.35;5.05;;;;;;;;;;6370274;22;20018;-61
2023/06/20 13:42:58;;;;;;;9.88;5.00;;;;;;;;;;6369988;22;20384;-62
2023/06/20 13:45:25;;;;;;;6.72;4.45;;;;;;;;;;6370574;22;20018;-61
2023/06/20 13:47:53;;;;;;;5.70;4.88;;;;;;;;;;6370694;22;20014;-62
2023/06/20 13:50:20;;;;;;;5.93;5.30;;;;;;;;;;6343662;22;20448;-61
2023/06/20 13:52:48;;;;;;;7.45;5.10;;;;;;;;;;6371705;22;20064;-61
2023/06/20 13:55:15;;;;;;;5.95;5.35;;;;;;;;;;6371038;22;20060;-61
2023/06/20 13:57:47;;;;;;;5.97;4.53;;;;;;;;;;6371680;22;20071;-61
2023/06/20 14:00:15;;;;;;;4.93;4.43;;;;;;;;;;6370833;22;20017;-61
2023/06/20 14:02:43;;;;;;;5.90;4.75;;;;;;;;;;6370963;22;20014;-62
2023/06/20 14:05:13;;;;;;;5.35;4.60;;;;;;;;;;6371290;22;20010;-62
2023/06/20 14:07:42;;;;;;;6.90;4.53;;;;;;;;;;6370215;22;20018;-62
2023/06/20 14:10:10;;;;;;;5.00;4.10;;;;;;;;;;6370461;22;20014;-63
2023/06/20 14:12:37;;;;;;;6.82;4.30;;;;;;;;;;6371319;22;20463;-62
2023/06/20 14:15:05;;;;;;;7.47;5.00;;;;;;;;;;6372022;22;20014;-62
2023/06/20 14:17:33;;;;;;;8.20;4.32;;;;;;;;;;6370380;22;20498;-62
2023/06/20 14:20:01;;;;;;;6.10;4.15;;;;;;;;;;6342245;22;20022;-62
2023/06/20 14:22:28;;;;;;;4.85;4.35;;;;;;;;;;6370555;22;20018;-62
2023/06/20 14:24:57;;;;;;;4.97;4.47;;;;;;;;;;6371171;22;20038;-62
2023/06/20 14:27:26;;;;;;;5.50;4.70;;;;;;;;;;6370786;22;20015;-62
2023/06/20 14:29:59;;;;;;;6.20;4.43;;;;;;;;;;6371177;22;20100;-62
2023/06/20 14:32:27;;;;;;;10.00;4.47;;;;;;;;;;6371043;22;20038;-64
2023/06/20 14:34:55;;;;;;;6.60;4.70;;;;;;;;;;6370503;22;20086;-63
2023/06/20 14:37:23;;;;;;;5.90;4.80;;;;;;;;;;6371146;22;20337;-62
2023/06/20 14:39:54;;;;;;;6.35;4.80;;;;;;;;;;6371311;22;20038;-62
2023/06/20 14:42:22;;;;;;;4.95;4.43;;;;;;;;;;6345196;22;20018;-62
2023/06/20 14:44:52;;;;;;;6.47;5.20;;;;;;;;;;6371263;22;20038;-62